createdAt,value
2023-04-09T00:00:09.604Z,99.90
2023-04-09T00:05:26.673Z,99.90
2023-04-09T00:10:30.856Z,99.90
2023-04-09T00:15:39.072Z,99.90
2023-04-09T00:21:36.751Z,99.90
2023-04-09T00:26:50.546Z,99.90
2023-04-09T00:32:03.481Z,99.90
2023-04-09T00:37:07.008Z,99.90
2023-04-09T00:42:12.116Z,99.90
2023-04-09T00:47:15.868Z,99.90
2023-04-09T00:52:20.997Z,99.90
2023-04-09T00:57:29.102Z,99.90
2023-04-09T01:02:33.199Z,99.90
2023-04-09T01:07:43.807Z,99.90
2023-04-09T01:12:53.787Z,99.90
2023-04-09T01:18:01.890Z,99.90
2023-04-09T01:23:16.310Z,99.90
2023-04-09T01:28:25.522Z,99.90
2023-04-09T01:33:30.809Z,99.90
2023-04-09T01:38:37.349Z,99.90
2023-04-09T01:43:44.792Z,99.90
2023-04-09T01:48:49.584Z,99.90
2023-04-09T01:53:54.173Z,99.90
2023-04-09T01:58:58.887Z,99.90
2023-04-09T02:04:04.779Z,99.90
2023-04-09T02:09:12.243Z,99.90
2023-04-09T02:14:19.726Z,99.90
2023-04-09T02:19:41.921Z,99.90
2023-04-09T02:24:52.519Z,99.90
2023-04-09T02:29:58.457Z,99.90
2023-04-09T02:35:07.611Z,99.90
2023-04-09T02:40:12.595Z,99.90
2023-04-09T02:45:21.652Z,99.90
2023-04-09T02:50:32.266Z,99.90
2023-04-09T02:55:43.804Z,99.90
2023-04-09T03:00:51.895Z,99.90
2023-04-09T03:06:05.427Z,99.90
2023-04-09T03:11:10.326Z,99.90
2023-04-09T03:16:16.402Z,99.90
2023-04-09T03:21:20.228Z,99.90
2023-04-09T03:26:29.941Z,99.90
2023-04-09T03:31:38.799Z,99.90
2023-04-09T03:36:44.061Z,99.90
2023-04-09T03:42:20.095Z,99.90
2023-04-09T03:47:27.688Z,99.90
2023-04-09T03:52:33.134Z,99.90
2023-04-09T03:57:49.393Z,99.90
2023-04-09T04:02:58.993Z,99.90
2023-04-09T04:08:23.653Z,99.90
2023-04-09T04:13:28.382Z,99.90
2023-04-09T04:18:36.204Z,99.90
2023-04-09T04:23:43.853Z,99.90
2023-04-09T04:29:00.893Z,99.90
2023-04-09T04:34:30.892Z,99.90
2023-04-09T04:39:52.298Z,99.90
2023-04-09T04:45:04.052Z,99.90
2023-04-09T04:50:29.034Z,99.90
2023-04-09T04:55:46.207Z,99.90
2023-04-09T05:01:00.739Z,99.90
2023-04-09T05:06:10.112Z,99.90
2023-04-09T05:11:44.543Z,99.90
2023-04-09T05:16:58.054Z,99.90
2023-04-09T05:22:21.433Z,99.90
2023-04-09T05:27:28.880Z,99.90
2023-04-09T05:32:38.791Z,99.90
2023-04-09T05:37:45.998Z,99.90
2023-04-09T05:42:49.624Z,99.90
2023-04-09T05:48:04.403Z,99.90
2023-04-09T05:53:11.605Z,99.90
2023-04-09T05:58:18.837Z,99.90
2023-04-09T06:03:30.613Z,99.90
2023-04-09T06:08:36.772Z,99.90
2023-04-09T06:13:51.363Z,99.90
2023-04-09T06:18:59.378Z,99.90
2023-04-09T06:24:05.664Z,99.90
2023-04-09T06:29:10.531Z,99.90
2023-04-09T06:34:18.925Z,99.90
2023-04-09T06:39:34.703Z,99.90
2023-04-09T06:44:38.695Z,99.90
2023-04-09T06:49:51.859Z,99.90
2023-04-09T06:55:09.052Z,99.90
2023-04-09T07:00:19.468Z,99.90
2023-04-09T07:05:27.475Z,99.90
2023-04-09T07:10:32.979Z,99.90
2023-04-09T07:15:44.506Z,99.90
2023-04-09T07:20:55.408Z,99.90
2023-04-09T07:26:19.900Z,99.90
2023-04-09T07:31:35.315Z,99.90
2023-04-09T07:36:52.628Z,99.90
2023-04-09T07:42:19.464Z,99.90
2023-04-09T07:47:23.274Z,99.90
2023-04-09T07:52:27.534Z,99.90
2023-04-09T07:57:36.694Z,99.90
2023-04-09T08:02:47.458Z,99.90
2023-04-09T08:13:19.592Z,99.90
2023-04-09T08:18:23.412Z,99.90
2023-04-09T08:23:34.372Z,99.90
2023-04-09T08:28:44.208Z,99.90
2023-04-09T08:33:48.439Z,99.60
2023-04-09T08:39:02.796Z,99.60
2023-04-09T08:44:12.497Z,98.40
2023-04-09T08:49:16.627Z,95.50
2023-04-09T08:54:52.617Z,95.20
2023-04-09T09:00:08.173Z,94.40
2023-04-09T09:05:17.460Z,94.60
2023-04-09T09:10:22.308Z,93.80
2023-04-09T09:15:42.266Z,95.10
2023-04-09T09:20:56.527Z,97.90
2023-04-09T09:26:17.255Z,95.10
2023-04-09T09:31:24.568Z,97.00
2023-04-09T09:36:41.898Z,97.40
2023-04-09T09:41:51.479Z,95.60
2023-04-09T09:47:02.815Z,97.10
2023-04-09T09:52:06.626Z,96.00
2023-04-09T10:02:45.963Z,95.10
2023-04-09T10:07:52.525Z,94.70
2023-04-09T10:12:59.677Z,95.30
2023-04-09T10:18:07.226Z,94.20
2023-04-09T10:23:27.726Z,92.30
2023-04-09T10:28:34.849Z,92.80
2023-04-09T10:34:04.666Z,89.50
2023-04-09T10:39:20.559Z,91.10
2023-04-09T10:44:39.846Z,92.40
2023-04-09T10:49:51.231Z,88.10
2023-04-09T10:55:06.940Z,91.00
2023-04-09T11:00:22.765Z,91.40
2023-04-09T11:05:34.155Z,90.70
2023-04-09T11:10:44.556Z,89.60
2023-04-09T11:15:50.216Z,91.30
2023-04-09T11:21:19.392Z,90.70
2023-04-09T11:26:29.679Z,89.70
2023-04-09T11:31:46.466Z,90.50
2023-04-09T11:36:57.285Z,91.20
2023-04-09T11:42:02.157Z,88.80
2023-04-09T11:47:11.543Z,90.20
2023-04-09T11:52:37.136Z,87.10
2023-04-09T11:57:43.223Z,92.80
2023-04-09T12:03:12.863Z,90.90
2023-04-09T12:08:30.857Z,90.80
2023-04-09T12:13:40.221Z,89.20
2023-04-09T12:18:56.101Z,83.50
2023-04-09T12:24:31.866Z,86.90
2023-04-09T12:29:56.620Z,83.50
2023-04-09T12:35:12.628Z,80.20
2023-04-09T12:40:21.994Z,77.50
2023-04-09T12:45:26.011Z,77.20
2023-04-09T12:50:35.749Z,79.90
2023-04-09T12:55:42.767Z,77.20
2023-04-09T13:00:50.178Z,82.50
2023-04-09T13:05:58.377Z,77.80
2023-04-09T13:11:16.008Z,84.30
2023-04-09T13:16:27.562Z,81.70
2023-04-09T13:21:35.537Z,83.70
2023-04-09T13:26:41.729Z,75.20
2023-04-09T13:31:55.060Z,72.60
2023-04-09T13:37:01.986Z,72.60
2023-04-09T13:42:17.872Z,76.20
2023-04-09T13:47:27.864Z,70.00
2023-04-09T13:52:45.941Z,73.50
2023-04-09T13:58:02.920Z,75.00
2023-04-09T14:08:27.317Z,68.30
2023-04-09T14:13:41.174Z,67.40
2023-04-09T14:24:23.215Z,68.80
2023-04-09T14:29:33.131Z,70.00
2023-04-09T14:34:51.883Z,62.50
2023-04-09T14:40:04.323Z,68.80
2023-04-09T14:45:14.145Z,63.90
2023-04-09T14:50:21.099Z,64.90
2023-04-09T14:55:29.630Z,64.00
2023-04-09T15:00:46.300Z,65.50
2023-04-09T15:06:15.156Z,66.40
2023-04-09T15:11:20.089Z,71.30
2023-04-09T15:16:32.219Z,72.80
2023-04-09T15:21:36.551Z,74.30
2023-04-09T15:27:01.711Z,70.10
2023-04-09T15:32:19.618Z,70.00
2023-04-09T15:37:35.262Z,68.00
2023-04-09T15:42:59.928Z,68.10
2023-04-09T15:48:12.365Z,63.20
2023-04-09T15:53:27.156Z,66.70
2023-04-09T15:58:33.860Z,67.90
2023-04-09T16:03:57.749Z,69.00
2023-04-09T16:09:39.220Z,68.40
2023-04-09T16:14:46.918Z,65.70
2023-04-09T16:20:25.015Z,63.80
2023-04-09T16:25:42.882Z,64.00
2023-04-09T16:30:53.590Z,60.80
2023-04-09T16:36:04.756Z,61.10
2023-04-09T16:41:19.445Z,64.20
2023-04-09T16:46:27.677Z,62.90
2023-04-09T16:51:35.766Z,63.90
2023-04-09T16:56:41.973Z,64.00
2023-04-09T17:01:51.839Z,65.10
2023-04-09T17:07:14.536Z,62.00
2023-04-09T17:12:26.042Z,64.50
2023-04-09T17:23:12.626Z,65.10
2023-04-09T17:28:20.692Z,67.90
2023-04-09T17:33:28.609Z,67.00
2023-04-09T17:38:39.255Z,70.80
2023-04-09T17:43:45.010Z,69.90
2023-04-09T17:49:00.114Z,72.80
2023-04-09T17:54:08.319Z,71.80
2023-04-09T17:59:21.017Z,73.70
2023-04-09T18:04:41.997Z,73.90
2023-04-09T18:09:51.352Z,74.80
2023-04-09T18:15:11.053Z,76.10
2023-04-09T18:20:41.042Z,77.20
2023-04-09T18:25:49.011Z,78.70
2023-04-09T18:31:06.113Z,80.40
2023-04-09T18:36:12.380Z,79.10
2023-04-09T18:41:32.820Z,79.30
2023-04-09T18:46:37.559Z,78.90
2023-04-09T18:51:50.983Z,78.10
2023-04-09T18:57:22.957Z,77.70
2023-04-09T19:02:26.882Z,78.10
2023-04-09T19:07:36.536Z,78.40
2023-04-09T19:12:50.035Z,80.10
2023-04-09T19:17:56.663Z,79.10
2023-04-09T19:23:01.779Z,78.80
2023-04-09T19:28:21.387Z,79.60
2023-04-09T19:33:25.720Z,80.00
2023-04-09T19:38:31.212Z,81.70
2023-04-09T19:43:39.426Z,82.70
2023-04-09T19:48:48.349Z,80.10
2023-04-09T19:53:52.936Z,81.50
2023-04-09T19:58:59.567Z,85.10
2023-04-09T20:04:05.924Z,88.70
2023-04-09T20:09:15.593Z,90.20
2023-04-09T20:14:23.193Z,90.30
2023-04-09T20:19:27.004Z,89.40
2023-04-09T20:24:30.895Z,88.90
2023-04-09T20:29:47.806Z,89.10
2023-04-09T20:34:55.030Z,89.70
2023-04-09T20:40:03.976Z,89.00
2023-04-09T20:45:14.518Z,88.90
2023-04-09T20:50:19.996Z,89.10
2023-04-09T20:55:27.088Z,90.50
2023-04-09T21:00:32.442Z,91.20
2023-04-09T21:05:35.945Z,91.30
2023-04-09T21:10:51.555Z,92.30
2023-04-09T21:15:58.965Z,93.30
2023-04-09T21:21:09.594Z,92.70
2023-04-09T21:26:14.243Z,92.80
2023-04-09T21:31:28.907Z,93.20
2023-04-09T21:36:42.478Z,94.90
2023-04-09T21:41:46.212Z,98.90
2023-04-09T21:46:52.555Z,99.80
2023-04-09T21:51:56.933Z,99.90
2023-04-09T21:57:01.272Z,99.20
2023-04-09T22:02:08.152Z,99.90
2023-04-09T22:07:14.670Z,98.60
2023-04-09T22:12:17.957Z,98.90
2023-04-09T22:17:23.208Z,98.40
2023-04-09T22:22:34.194Z,99.00
2023-04-09T22:27:38.367Z,99.80
2023-04-09T22:32:45.440Z,99.60
2023-04-09T22:37:52.081Z,99.90
2023-04-09T22:42:58.272Z,99.90
2023-04-09T22:48:07.176Z,99.90
2023-04-09T22:53:19.444Z,99.90
2023-04-09T22:58:42.169Z,99.90
2023-04-09T23:03:52.165Z,99.90
2023-04-09T23:08:58.224Z,99.90
2023-04-09T23:14:01.770Z,99.90
2023-04-09T23:19:07.797Z,99.90
2023-04-09T23:24:11.828Z,99.90
2023-04-09T23:29:15.608Z,99.90
2023-04-09T23:34:21.625Z,99.90
2023-04-09T23:39:29.155Z,99.90
2023-04-09T23:44:36.001Z,99.90
2023-04-09T23:49:41.046Z,99.90
2023-04-09T23:54:51.379Z,99.90
2023-04-09T23:59:58.580Z,99.90
